Time;durP1;ratioP1;P1;durP2;ratioP2;P2;SDS_P1;SDS_P2;PMS_P1;PMS_P2;Temp;Humidity;BMP_temperature;BMP_pressure;BME280_temperature;BME280_humidity;BME280_pressure;Samples;Min_cycle;Max_cycle;Signal;HPM_P1;HPM_P2
2023/09/07 05:39:57;;;;;;;;;9.50;9.50;;;;;30.86;36.92;101147.09;5134048;27;45611;-64
2023/09/07 05:42:22;;;;;;;;;10.00;10.00;;;;;31.29;36.28;101147.25;5116729;27;45389;-64
2023/09/07 05:44:47;;;;;;;;;10.75;10.75;;;;;31.52;35.91;101146.00;5116393;27;45444;-64
2023/09/07 05:47:12;;;;;;;;;12.75;11.50;;;;;31.70;35.75;101147.50;5119097;27;45482;-64
2023/09/07 05:49:38;;;;;;;;;10.50;9.75;;;;;31.88;34.93;101150.66;5116302;27;55470;-64
2023/09/07 05:52:03;;;;;;;;;11.50;11.50;;;;;32.03;35.28;101145.03;5116333;27;56681;-63
2023/09/07 05:54:29;;;;;;;;;11.75;9.50;;;;;32.11;35.21;101161.50;5114448;27;45230;-66
2023/09/07 05:56:54;;;;;;;;;9.25;9.25;;;;;32.20;34.88;101155.66;5105407;27;54247;-64
2023/09/07 05:59:19;;;;;;;;;13.25;10.25;;;;;32.36;34.76;101150.84;5112101;27;57086;-62
2023/09/07 06:01:45;;;;;;;;;10.00;10.00;;;;;32.47;34.30;101162.25;5116658;27;45282;-62
2023/09/07 06:04:10;;;;;;;;;13.00;13.00;;;;;32.60;34.59;101164.25;5114763;27;45342;-63
2023/09/07 06:06:36;;;;;;;;;12.50;12.50;;;;;32.60;34.18;101164.25;5115958;27;45363;-63
2023/09/07 06:09:01;;;;;;;;;9.00;7.00;;;;;32.68;33.81;101159.38;5114444;27;46465;-63
2023/09/07 06:11:26;;;;;;;;;12.75;10.25;;;;;32.72;34.21;101159.88;5116393;27;45241;-63
2023/09/07 06:13:52;;;;;;;;;10.75;8.50;;;;;32.87;33.23;101155.03;5115476;27;54363;-63
2023/09/07 06:16:17;;;;;;;;;9.75;9.75;;;;;32.93;33.18;101164.47;5116160;27;55032;-61
2023/09/07 06:18:43;;;;;;;;;8.75;8.75;;;;;33.04;33.51;101169.44;5114366;27;46503;-63
2023/09/07 15:39:55;;;;;;;;;12.50;11.25;;;;;40.30;22.94;101001.59;5155038;27;45986;-58
2023/09/07 15:42:20;;;;;;;;;11.75;11.75;;;;;40.65;22.27;101000.34;5137773;27;45345;-59
2023/09/07 15:44:47;;;;;;;;;13.00;9.50;;;;;41.04;22.35;101010.38;5137015;27;49707;-59
2023/09/07 15:47:12;;;;;;;;;16.50;13.75;;;;;41.28;22.17;101008.09;5134592;27;45538;-58
2023/09/07 15:49:40;;;;;;;;;13.75;12.75;;;;;41.46;22.31;101012.47;5137387;27;46055;-59
2023/09/07 15:52:06;;;;;;;;;9.75;8.00;;;;;41.59;21.55;101008.41;5118975;27;45354;-58
2023/09/07 15:54:31;;;;;;;;;12.50;11.75;;;;;41.74;20.94;101020.63;5137400;27;45345;-59
2023/09/07 15:56:57;;;;;;;;;11.00;11.00;;;;;41.90;21.15;101014.00;5137589;27;45521;-58
2023/09/07 15:59:22;;;;;;;;;11.00;10.50;;;;;41.97;21.26;101018.56;5117723;27;45682;-58
2023/09/07 16:01:49;;;;;;;;;11.75;9.75;;;;;42.08;20.84;101015.56;5137309;27;45296;-59
2023/09/07 16:04:14;;;;;;;;;8.75;8.75;;;;;42.09;20.01;101008.81;5127844;27;45467;-58
2023/09/07 16:06:39;;;;;;;;;10.50;10.50;;;;;42.20;19.89;101012.50;5118766;27;45322;-59
2023/09/07 16:09:05;;;;;;;;;12.00;10.75;;;;;42.25;20.22;101004.94;5137036;27;54445;-59
2023/09/07 16:11:30;;;;;;;;;11.50;10.00;;;;;42.40;20.38;101014.63;5137064;27;45380;-57
2023/09/07 16:13:56;;;;;;;;;11.75;11.75;;;;;42.42;20.10;101010.41;5136573;27;46363;-59
2023/09/07 16:16:22;;;;;;;;;14.25;13.00;;;;;42.46;20.17;101003.09;5136523;27;54623;-58
2023/09/07 16:18:47;;;;;;;;;12.00;12.00;;;;;42.61;20.73;101000.34;5135885;27;46203;-59
2023/09/07 16:21:15;;;;;;;;;11.00;11.00;;;;;42.71;20.46;101005.13;5136995;27;45203;-58
2023/09/07 16:23:43;;;;;;;;;11.50;10.75;;;;;42.81;20.27;101001.53;5136912;27;45246;-59
2023/09/07 16:26:08;;;;;;;;;10.00;10.00;;;;;42.85;20.13;101017.66;5135887;27;45540;-58
2023/09/07 16:28:33;;;;;;;;;14.00;11.00;;;;;42.93;19.13;101011.47;5135895;27;45910;-59
2023/09/07 16:30:59;;;;;;;;;9.75;9.75;;;;;42.99;19.61;100999.06;5129514;27;59504;-57
2023/09/07 16:33:24;;;;;;;;;10.00;10.00;;;;;43.07;19.54;101002.44;5135532;27;51793;-59
2023/09/07 16:35:50;;;;;;;;;11.50;10.00;;;;;43.17;18.95;101002.50;5136570;27;45405;-59
2023/09/07 16:38:15;;;;;;;;;9.50;9.50;;;;;43.17;19.41;101005.31;5113882;27;45444;-58
2023/09/07 16:40:40;;;;;;;;;15.00;11.00;;;;;43.23;19.51;101001.38;5116395;27;45410;-58
2023/09/07 16:43:06;;;;;;;;;12.00;10.00;;;;;43.35;19.38;101004.78;5104569;27;49020;-59
2023/09/07 16:45:31;;;;;;;;;8.50;8.50;;;;;43.37;18.58;100999.69;5104716;27;45330;-58
2023/09/07 16:47:57;;;;;;;;;14.00;11.50;;;;;43.28;18.01;100996.59;5121351;27;46704;-59
2023/09/07 16:50:23;;;;;;;;;12.00;8.50;;;;;43.30;18.55;101001.97;5122617;27;50197;-59
2023/09/07 16:52:48;;;;;;;;;8.25;8.25;;;;;43.34;18.45;100998.28;5104008;27;45339;-59
2023/09/07 16:55:14;;;;;;;;;8.50;8.50;;;;;43.46;18.11;101005.63;5122753;27;45590;-59
2023/09/07 16:57:40;;;;;;;;;8.50;8.50;;;;;43.40;17.36;101007.59;5103322;27;47141;-58
2023/09/07 17:00:06;;;;;;;;;9.25;8.00;;;;;43.36;17.57;101003.66;5121515;27;45410;-58
2023/09/07 17:02:31;;;;;;;;;8.00;8.00;;;;;43.39;17.59;101003.91;5120828;27;45586;-58
2023/09/07 17:04:56;;;;;;;;;7.00;7.00;;;;;43.39;17.61;101012.38;5120516;27;46514;-58
2023/09/07 17:07:23;;;;;;;;;7.50;6.50;;;;;43.36;17.11;101010.16;5121277;27;45353;-59
2023/09/07 17:09:49;;;;;;;;;6.50;6.25;;;;;43.36;17.02;101000.81;5122172;27;45451;-58
2023/09/07 17:12:15;;;;;;;;;7.50;6.75;;;;;43.44;17.02;101008.72;5100102;27;45455;-58
2023/09/07 17:14:41;;;;;;;;;5.25;5.25;;;;;43.51;17.16;101009.28;5105671;27;45444;-57
2023/09/07 17:17:07;;;;;;;;;6.75;6.75;;;;;43.53;16.81;101023.97;5106018;27;45414;-59
2023/09/07 17:19:33;;;;;;;;;7.00;7.00;;;;;43.58;17.43;101011.84;5122279;27;45241;-59
2023/09/07 17:21:58;;;;;;;;;6.25;6.25;;;;;43.53;16.72;101015.50;5122526;27;45275;-58
2023/09/07 17:24:24;;;;;;;;;5.75;5.00;;;;;43.59;16.96;101017.22;5121915;27;45420;-58
2023/09/07 17:26:49;;;;;;;;;6.00;5.50;;;;;43.54;16.61;101011.59;5121274;27;45507;-59
2023/09/07 17:29:16;;;;;;;;;5.00;5.00;;;;;43.52;16.72;101019.47;5122982;27;45403;-58
2023/09/07 17:31:41;;;;;;;;;7.25;6.25;;;;;43.51;16.28;101014.09;5124219;27;45797;-59
2023/09/07 17:34:06;;;;;;;;;4.50;4.50;;;;;43.44;16.53;101020.03;5118149;27;45382;-59
2023/09/07 17:36:32;;;;;;;;;4.00;4.00;;;;;43.48;16.58;101020.28;5099135;27;45365;-59
2023/09/07 17:38:57;;;;;;;;;4.00;4.00;;;;;43.40;16.35;101013.25;5118862;27;45394;-59
2023/09/07 17:41:32;;;;;;;;;5.25;5.25;;;;;43.44;17.27;101019.19;5103524;27;45790;-58
2023/09/07 17:43:57;;;;;;;;;6.75;4.75;;;;;43.44;16.77;101008.72;5120356;27;45497;-59
2023/09/07 17:46:23;;;;;;;;;7.00;5.00;;;;;43.50;17.39;101012.41;5121275;27;55315;-59
2023/09/07 17:48:49;;;;;;;;;9.00;7.00;;;;;43.39;16.72;101012.38;5120466;27;45357;-59
2023/09/07 17:51:15;;;;;;;;;9.00;5.75;;;;;43.35;17.37;101018.91;5120621;27;45263;-60
2023/09/07 17:53:41;;;;;;;;;7.00;5.75;;;;;43.22;16.66;101020.28;5103355;27;47207;-59
2023/09/07 17:56:07;;;;;;;;;5.25;5.25;;;;;43.15;16.96;101021.69;5121548;27;45345;-58
2023/09/07 17:58:35;;;;;;;;;6.75;6.00;;;;;43.08;16.94;101030.38;5121742;27;45238;-60
2023/09/07 18:01:00;;;;;;;;;7.25;7.25;;;;;42.98;17.60;101027.53;5121567;27;45317;-59
2023/09/07 18:03:26;;;;;;;;;11.25;7.50;;;;;42.90;17.76;101034.56;5121696;27;45208;-59
2023/09/07 18:05:51;;;;;;;;;6.00;6.00;;;;;42.79;17.69;101032.84;5120890;27;45400;-58
2023/09/07 18:08:16;;;;;;;;;5.25;5.25;;;;;42.63;17.97;101039.53;5098941;27;45368;-58
2023/09/07 18:10:42;;;;;;;;;9.00;8.00;;;;;42.53;18.22;101042.31;5118074;27;45330;-59
2023/09/07 18:13:07;;;;;;;;;8.75;6.25;;;;;42.38;17.67;101036.59;5111646;27;45265;-59
2023/09/07 18:15:32;;;;;;;;;6.75;6.75;;;;;42.23;17.72;101041.00;5102246;27;46351;-61
2023/09/07 18:17:58;;;;;;;;;8.00;6.50;;;;;42.09;18.13;101036.97;5100935;27;54041;-60
2023/09/07 18:20:24;;;;;;;;;7.25;6.25;;;;;41.94;18.54;101036.03;5119446;27;45284;-60
2023/09/07 18:22:53;;;;;;;;;8.00;7.00;;;;;41.83;18.41;101046.34;5109473;27;45449;-60
2023/09/07 18:25:19;;;;;;;;;10.25;7.50;;;;;41.72;18.18;101051.03;5115967;27;46168;-60
2023/09/07 18:27:44;;;;;;;;;8.50;8.25;;;;;41.62;18.81;101044.47;5120470;27;45244;-60
2023/09/07 18:30:10;;;;;;;;;9.75;8.00;;;;;41.52;18.27;101039.59;5116941;27;45219;-60
2023/09/07 18:32:35;;;;;;;;;7.00;7.00;;;;;41.51;18.34;101058.47;5101995;27;45672;-59
2023/09/07 18:35:01;;;;;;;;;13.00;13.00;;;;;41.42;18.60;101053.56;5115548;27;47281;-60
2023/09/07 18:37:27;;;;;;;;;13.75;12.50;;;;;41.25;19.07;101045.22;5116693;27;45425;-60
2023/09/07 18:39:53;;;;;;;;;13.00;9.00;;;;;41.13;19.50;101050.16;5120809;27;45370;-59
2023/09/07 18:42:18;;;;;;;;;14.00;11.75;;;;;41.04;20.43;101055.38;5101881;27;46027;-60
2023/09/07 18:44:43;;;;;;;;;18.50;13.75;;;;;40.89;20.73;101045.91;5102045;27;46960;-59
2023/09/07 18:47:09;;;;;;;;;12.50;12.50;;;;;40.77;20.52;101058.16;5120859;27;45363;-61
2023/09/07 18:49:34;;;;;;;;;13.75;12.75;;;;;40.70;20.33;101060.31;5121041;27;45265;-60
2023/09/07 18:51:59;;;;;;;;;20.00;13.75;;;;;40.66;21.08;101045.06;5102301;27;45263;-60
2023/09/07 18:54:25;;;;;;;;;18.75;16.50;;;;;40.60;21.00;101057.34;5101821;27;45343;-61
2023/09/07 18:56:51;;;;;;;;;17.50;17.50;;;;;40.47;20.85;101054.94;5120571;27;45364;-60
2023/09/07 18:59:16;;;;;;;;;27.25;21.25;;;;;40.48;21.30;101065.06;5120694;27;45511;-61
2023/09/07 19:01:42;;;;;;;;;19.50;17.75;;;;;40.46;20.95;101070.09;5102181;27;45520;-61
2023/09/07 19:04:10;;;;;;;;;19.00;18.50;;;;;40.41;21.74;101064.38;5101417;27;45402;-63
2023/09/07 19:06:37;;;;;;;;;20.50;19.00;;;;;40.37;22.01;101069.69;5101764;27;45303;-63
2023/09/07 19:09:06;;;;;;;;;19.00;17.00;;;;;40.35;22.05;101079.47;5114720;27;45763;-59
2023/09/07 19:11:31;;;;;;;;;21.50;19.50;;;;;40.26;21.88;101059.41;5084251;27;45531;-62
2023/09/07 19:13:57;;;;;;;;;26.25;24.00;;;;;40.36;22.16;101070.78;5098888;27;45269;-61
2023/09/07 19:16:23;;;;;;;;;24.00;23.25;;;;;40.18;22.18;101057.00;5117233;27;45260;-62
2023/09/07 19:18:50;;;;;;;;;26.00;24.25;;;;;40.21;22.13;101069.69;5099340;27;45454;-62
2023/09/07 19:21:15;;;;;;;;;23.75;23.75;;;;;40.13;22.36;101062.56;5083461;27;45399;-61
2023/09/07 19:23:43;;;;;;;;;28.50;23.00;;;;;40.10;22.81;101074.28;5106549;27;46965;-63
2023/09/07 19:26:38;;;;;;;;;19.75;19.75;;;;;40.13;23.11;101072.94;5102213;27;45348;-63
2023/09/07 19:29:08;;;;;;;;;24.25;22.25;;;;;40.06;23.04;101068.34;5119429;27;45373;-63
2023/09/07 19:31:34;;;;;;;;;24.25;23.25;;;;;40.01;23.10;101065.44;5119813;27;45213;-63
2023/09/07 19:33:59;;;;;;;;;23.50;22.50;;;;;40.00;23.42;101068.50;5107691;27;45289;-61
2023/09/07 19:36:26;;;;;;;;;22.00;21.25;;;;;40.02;23.66;101072.78;5117759;27;45668;-61
2023/09/07 19:38:54;;;;;;;;;18.25;13.50;;;;;39.98;23.50;101079.19;5095396;27;45470;-62
2023/09/07 19:41:21;;;;;;;;;23.75;21.25;;;;;39.94;23.63;101086.41;5118858;27;45568;-63
2023/09/07 19:43:47;;;;;;;;;22.75;20.50;;;;;39.90;23.58;101088.03;5099573;27;47041;-61
2023/09/07 19:46:13;;;;;;;;;22.00;20.00;;;;;39.86;23.74;101084.03;5107513;27;45378;-61
2023/09/07 19:48:39;;;;;;;;;23.25;21.25;;;;;39.84;24.20;101087.06;5111954;27;45354;-62
2023/09/07 19:51:10;;;;;;;;;30.50;27.50;;;;;39.84;24.50;101098.31;5115480;27;45371;-61
2023/09/07 19:53:36;;;;;;;;;28.00;24.75;;;;;39.83;24.59;101095.75;5100393;27;46570;-62
2023/09/07 19:56:12;;;;;;;;;28.50;24.00;;;;;39.70;24.21;101092.16;5112246;27;45412;-63
2023/09/07 19:58:38;;;;;;;;;23.75;22.50;;;;;39.65;24.04;101091.19;5112083;27;45306;-62
2023/09/07 20:01:04;;;;;;;;;22.75;20.00;;;;;39.55;24.19;101093.84;5109675;27;45773;-62
2023/09/07 20:03:29;;;;;;;;;19.50;18.25;;;;;39.56;24.38;101099.19;5108079;27;46070;-62
2023/09/07 20:05:55;;;;;;;;;23.00;20.50;;;;;39.53;24.55;101102.50;5097110;27;45776;-63
2023/09/07 20:08:21;;;;;;;;;20.75;20.25;;;;;39.52;24.11;101108.38;5114958;27;45409;-62
2023/09/07 20:10:47;;;;;;;;;24.00;20.75;;;;;39.42;24.39;101095.00;5110593;27;45420;-62
2023/09/07 20:13:12;;;;;;;;;23.00;21.25;;;;;39.38;25.08;101109.78;5117017;27;46244;-62
2023/09/07 20:15:38;;;;;;;;;22.50;22.50;;;;;39.32;24.81;101097.59;5119965;27;45369;-61
2023/09/07 20:18:04;;;;;;;;;25.25;23.00;;;;;39.34;25.04;101115.03;5103879;27;45422;-62
2023/09/07 20:20:30;;;;;;;;;26.00;24.50;;;;;39.32;25.64;101111.59;5121586;27;45758;-62
2023/09/07 20:22:55;;;;;;;;;22.75;22.50;;;;;39.35;25.34;101109.16;5120809;27;45380;-63
2023/09/07 20:25:21;;;;;;;;;26.00;25.00;;;;;39.35;25.41;101111.97;5122520;27;45455;-63
2023/09/07 20:27:47;;;;;;;;;24.75;24.50;;;;;39.36;25.65;101104.41;5121309;27;45360;-63
2023/09/07 20:30:13;;;;;;;;;31.00;26.50;;;;;39.29;25.20;101109.31;5117698;27;45349;-63
2023/09/07 20:32:38;;;;;;;;;27.50;23.25;;;;;39.18;25.44;101105.47;5103459;27;45554;-78
2023/09/07 20:35:06;;;;;;;;;36.50;27.50;;;;;39.15;25.91;101114.38;5118975;27;45308;-76
2023/09/07 20:37:32;;;;;;;;;30.50;27.25;;;;;39.13;25.91;101112.94;5105982;27;45344;-78
